<?xml version='1.0' encoding='UTF-8'?><gpx version="1.1" creator="JPX - https://github.com/jenetics/jpx" xmlns="http://www.topografix.com/GPX/1/1"><trk><trkseg><trkpt lat="45.32880244296011" lon="10.509930359295607"><ele>64.0</ele><time>2026-03-24T12:31:00.977Z</time></trkpt><trkpt lat="45.32886372717078" lon="10.510003424581106"><ele>64.0</ele><time>2026-03-24T12:31:02.977Z</time></trkpt><trkpt lat="45.32894803146888" lon="10.510088719851906"><ele>64.0</ele><time>2026-03-24T12:31:04.977Z</time></trkpt><trkpt lat="45.3290193876088" lon="10.510151858936247"><ele>64.0</ele><time>2026-03-24T12:31:06.977Z</time></trkpt><trkpt lat="45.32912377080165" lon="10.51021486908103"><ele>64.0</ele><time>2026-03-24T12:31:09.977Z</time></trkpt><trkpt lat="45.329199570869775" lon="10.510281035336359"><ele>63.83333333333333</ele><time>2026-03-24T12:31:11.977Z</time></trkpt><trkpt lat="45.32926188234178" lon="10.510322083065029"><ele>63.666666666666664</ele><time>2026-03-24T12:31:12.977Z</time></trkpt><trkpt lat="45.32936381869807" lon="10.510395544438598"><ele>63.5</ele><time>2026-03-24T12:31:14.977Z</time></trkpt><trkpt lat="45.32944564034521" lon="10.510479869288407"><ele>63.33333333333333</ele><time>2026-03-24T12:31:16.977Z</time></trkpt><trkpt lat="45.329526144406856" lon="10.510521278520802"><ele>63.166666666666664</ele><time>2026-03-24T12:31:18.977Z</time></trkpt><trkpt lat="45.32958604180262" lon="10.51057147843117"><ele>63.0</ele><time>2026-03-24T12:31:20.977Z</time></trkpt><trkpt lat="45.32968789956552" lon="10.51037817607122"><ele>63.0</ele><time>2026-03-24T12:31:22.977Z</time></trkpt><trkpt lat="45.32970712783307" lon="10.510283888515094"><ele>63.0</ele><time>2026-03-24T12:31:23.977Z</time></trkpt><trkpt lat="45.32973660164544" lon="10.510196828118326"><ele>63.0</ele><time>2026-03-24T12:31:24.977Z</time></trkpt><trkpt lat="45.329768338434555" lon="10.510099362089377"><ele>63.0</ele><time>2026-03-24T12:31:25.977Z</time></trkpt><trkpt lat="45.329805873893754" lon="10.509989108122925"><ele>63.0</ele><time>2026-03-24T12:31:26.977Z</time></trkpt><trkpt lat="45.32985023944912" lon="10.509868228718851"><ele>63.0</ele><time>2026-03-24T12:31:27.977Z</time></trkpt><trkpt lat="45.32989328573227" lon="10.509742583026117"><ele>62.666666666666664</ele><time>2026-03-24T12:31:28.977Z</time></trkpt><trkpt lat="45.32993859974836" lon="10.509612828399744"><ele>62.33333333333333</ele><time>2026-03-24T12:31:29.977Z</time></trkpt><trkpt lat="45.329976862750435" lon="10.50949964943291"><ele>62.0</ele><time>2026-03-24T12:31:30.977Z</time></trkpt><trkpt lat="45.33001571772793" lon="10.509389943755673"><ele>61.666666666666664</ele><time>2026-03-24T12:31:31.977Z</time></trkpt><trkpt lat="45.33005844301281" lon="10.509275561725417"><ele>61.33333333333333</ele><time>2026-03-24T12:31:32.977Z</time></trkpt><trkpt lat="45.33009422601423" lon="10.509171060803292"><ele>61.0</ele><time>2026-03-24T12:31:33.977Z</time></trkpt><trkpt lat="45.330127642084264" lon="10.509073881069366"><ele>61.0</ele><time>2026-03-24T12:31:34.977Z</time></trkpt><trkpt lat="45.33015856178957" lon="10.508978894451031"><ele>60.99999999999999</ele><time>2026-03-24T12:31:35.977Z</time></trkpt><trkpt lat="45.33018800155628" lon="10.508897623053903"><ele>60.99999999999999</ele><time>2026-03-24T12:31:36.977Z</time></trkpt><trkpt lat="45.33023154662307" lon="10.508782088107793"><ele>61.0</ele><time>2026-03-24T12:31:38.977Z</time></trkpt><trkpt lat="45.330147677535436" lon="10.508640065902746"><ele>61.0</ele><time>2026-03-24T12:31:41.977Z</time></trkpt><trkpt lat="45.33006337115863" lon="10.50852737168085"><ele>61.28571428571428</ele><time>2026-03-24T12:31:43.977Z</time></trkpt><trkpt lat="45.33001599070681" lon="10.508468396017799"><ele>61.57142857142857</ele><time>2026-03-24T12:31:44.977Z</time></trkpt><trkpt lat="45.32997025024037" lon="10.50839270142879"><ele>61.857142857142854</ele><time>2026-03-24T12:31:45.977Z</time></trkpt><trkpt lat="45.32991729716384" lon="10.508308951647395"><ele>62.14285714285714</ele><time>2026-03-24T12:31:46.977Z</time></trkpt><trkpt lat="45.32986972947581" lon="10.508210975919376"><ele>62.42857142857143</ele><time>2026-03-24T12:31:47.977Z</time></trkpt><trkpt lat="45.32982324746379" lon="10.508136089428634"><ele>62.714285714285715</ele><time>2026-03-24T12:31:48.977Z</time></trkpt><trkpt lat="45.32978112213795" lon="10.50805946951604"><ele>63.0</ele><time>2026-03-24T12:31:49.977Z</time></trkpt><trkpt lat="45.32974112083294" lon="10.507983152177994"><ele>63.0</ele><time>2026-03-24T12:31:52.977Z</time></trkpt><trkpt lat="45.32959505344398" lon="10.508044009214975"><ele>63.0</ele><time>2026-03-24T12:31:57.977Z</time></trkpt><trkpt lat="45.32952431136156" lon="10.508134003168358"><ele>63.0</ele><time>2026-03-24T12:31:58.976Z</time></trkpt><trkpt lat="45.32945723503153" lon="10.508234249344047"><ele>63.0</ele><time>2026-03-24T12:31:59.976Z</time></trkpt><trkpt lat="45.32937047598209" lon="10.508344907079648"><ele>63.0</ele><time>2026-03-24T12:32:00.976Z</time></trkpt><trkpt lat="45.3292704887006" lon="10.508458825777414"><ele>63.0</ele><time>2026-03-24T12:32:01.976Z</time></trkpt><trkpt lat="45.32915913664027" lon="10.508578907925239"><ele>63.0</ele><time>2026-03-24T12:32:02.976Z</time></trkpt><trkpt lat="45.32905155420434" lon="10.508706519742473"><ele>63.0</ele><time>2026-03-24T12:32:03.976Z</time></trkpt><trkpt lat="45.32895294670282" lon="10.508822631043085"><ele>63.2</ele><time>2026-03-24T12:32:04.976Z</time></trkpt><trkpt lat="45.328854820726754" lon="10.50894091502955"><ele>63.4</ele><time>2026-03-24T12:32:05.976Z</time></trkpt><trkpt lat="45.32876640576932" lon="10.509047231221901"><ele>63.60000000000001</ele><time>2026-03-24T12:32:06.976Z</time></trkpt><trkpt lat="45.328684198386604" lon="10.509146387775452"><ele>63.800000000000004</ele><time>2026-03-24T12:32:07.976Z</time></trkpt><trkpt lat="45.328610079487255" lon="10.50923573149845"><ele>64.0</ele><time>2026-03-24T12:32:08.976Z</time></trkpt><trkpt lat="45.328535863108925" lon="10.509325082077629"><ele>63.99999999999999</ele><time>2026-03-24T12:32:09.976Z</time></trkpt><trkpt lat="45.3284751721286" lon="10.509393611031589"><ele>64.0</ele><time>2026-03-24T12:32:10.976Z</time></trkpt><trkpt lat="45.32842025632179" lon="10.50946138788258"><ele>64.0</ele><time>2026-03-24T12:32:11.976Z</time></trkpt><trkpt lat="45.32836822587385" lon="10.50952448223315"><ele>64.0</ele><time>2026-03-24T12:32:12.976Z</time></trkpt><trkpt lat="45.32831019625538" lon="10.509593138259657"><ele>63.99999999999999</ele><time>2026-03-24T12:32:14.978Z</time></trkpt><trkpt lat="45.32839505625737" lon="10.509744585662794"><ele>64.0</ele><time>2026-03-24T12:32:24.979Z</time></trkpt><trkpt lat="45.32845382462207" lon="10.509787152539422"><ele>63.99999999999999</ele><time>2026-03-24T12:32:25.978Z</time></trkpt><trkpt lat="45.328513347984895" lon="10.509842488962715"><ele>64.0</ele><time>2026-03-24T12:32:26.979Z</time></trkpt><trkpt lat="45.328577581583225" lon="10.509894067640785"><ele>64.0</ele><time>2026-03-24T12:32:27.979Z</time></trkpt><trkpt lat="45.32865308140893" lon="10.509914341114468"><ele>64.0</ele><time>2026-03-24T12:32:28.979Z</time></trkpt><trkpt lat="45.328754050620205" lon="10.509975578474311"><ele>63.99999999999999</ele><time>2026-03-24T12:32:30.979Z</time></trkpt><trkpt lat="45.328832513485686" lon="10.51001570933741"><ele>64.0</ele><time>2026-03-24T12:32:38.979Z</time></trkpt><trkpt lat="45.32891567447806" lon="10.510127997293608"><ele>63.83333333333333</ele><time>2026-03-24T12:32:40.979Z</time></trkpt><trkpt lat="45.32899084157356" lon="10.51018713266029"><ele>63.666666666666664</ele><time>2026-03-24T12:32:41.979Z</time></trkpt><trkpt lat="45.32905522469724" lon="10.510243150612148"><ele>63.5</ele><time>2026-03-24T12:32:42.979Z</time></trkpt><trkpt lat="45.329136146421035" lon="10.510293456324362"><ele>63.33333333333333</ele><time>2026-03-24T12:32:43.979Z</time></trkpt><trkpt lat="45.32921235720774" lon="10.510343334605404"><ele>63.166666666666664</ele><time>2026-03-24T12:32:44.979Z</time></trkpt><trkpt lat="45.329281531796454" lon="10.510388859425477"><ele>63.0</ele><time>2026-03-24T12:32:45.979Z</time></trkpt><trkpt lat="45.32934825782861" lon="10.510434978820154"><ele>63.0</ele><time>2026-03-24T12:32:46.979Z</time></trkpt><trkpt lat="45.32943946775528" lon="10.51051350271288"><ele>63.0</ele><time>2026-03-24T12:32:48.979Z</time></trkpt><trkpt lat="45.32953656774915" lon="10.51058244696147"><ele>63.0</ele><time>2026-03-24T12:32:50.979Z</time></trkpt><trkpt lat="45.3296078869176" lon="10.510627954502924"><ele>63.0</ele><time>2026-03-24T12:32:51.978Z</time></trkpt><trkpt lat="45.32969621285203" lon="10.510690275903192"><ele>63.0</ele><time>2026-03-24T12:32:52.978Z</time></trkpt><trkpt lat="45.32979431784671" lon="10.51075607397826"><ele>62.8</ele><time>2026-03-24T12:32:53.978Z</time></trkpt><trkpt lat="45.329896755507214" lon="10.51082953036569"><ele>62.599999999999994</ele><time>2026-03-24T12:32:54.978Z</time></trkpt><trkpt lat="45.33000110648054" lon="10.51090800016304"><ele>62.400000000000006</ele><time>2026-03-24T12:32:55.978Z</time></trkpt><trkpt lat="45.33009213498109" lon="10.51097448253173"><ele>62.2</ele><time>2026-03-24T12:32:56.978Z</time></trkpt><trkpt lat="45.33016661264566" lon="10.511024877933519"><ele>62.0</ele><time>2026-03-24T12:32:57.978Z</time></trkpt><trkpt lat="45.330238070450484" lon="10.511072722570916"><ele>62.00000000000001</ele><time>2026-03-24T12:32:58.978Z</time></trkpt><trkpt lat="45.330305968689665" lon="10.511116802103926"><ele>62.0</ele><time>2026-03-24T12:32:59.978Z</time></trkpt><trkpt lat="45.330376074683016" lon="10.511164239460916"><ele>62.0</ele><time>2026-03-24T12:33:00.978Z</time></trkpt><trkpt lat="45.33044901361059" lon="10.511207834455911"><ele>62.0</ele><time>2026-03-24T12:33:01.978Z</time></trkpt><trkpt lat="45.33052209193089" lon="10.511254845964928"><ele>62.00000000000001</ele><time>2026-03-24T12:33:02.978Z</time></trkpt><trkpt lat="45.330587467346994" lon="10.511294209777494"><ele>62.0</ele><time>2026-03-24T12:33:03.978Z</time></trkpt><trkpt lat="45.33065424658765" lon="10.511336909139"><ele>61.8</ele><time>2026-03-24T12:33:04.978Z</time></trkpt><trkpt lat="45.33073552127465" lon="10.511406062941193"><ele>61.6</ele><time>2026-03-24T12:33:06.978Z</time></trkpt><trkpt lat="45.33067294505623" lon="10.511529073115307"><ele>61.39999999999999</ele><time>2026-03-24T12:33:09.978Z</time></trkpt><trkpt lat="45.330614171068156" lon="10.511664643752606"><ele>61.199999999999996</ele><time>2026-03-24T12:33:11.978Z</time></trkpt><trkpt lat="45.330563231731425" lon="10.511742531025982"><ele>61.0</ele><time>2026-03-24T12:33:12.978Z</time></trkpt><trkpt lat="45.33051666223685" lon="10.51182337530556"><ele>60.99999999999999</ele><time>2026-03-24T12:33:13.978Z</time></trkpt><trkpt lat="45.33046746566048" lon="10.511909840799028"><ele>61.0</ele><time>2026-03-24T12:33:14.978Z</time></trkpt><trkpt lat="45.33041555806837" lon="10.511992275679594"><ele>60.99999999999999</ele><time>2026-03-24T12:33:15.978Z</time></trkpt><trkpt lat="45.33037191111188" lon="10.512059939502482"><ele>60.99999999999999</ele><time>2026-03-24T12:33:16.978Z</time></trkpt><trkpt lat="45.33032107719812" lon="10.5121399322944"><ele>61.0</ele><time>2026-03-24T12:33:17.978Z</time></trkpt><trkpt lat="45.33028319403751" lon="10.512221845505582"><ele>60.99999999999999</ele><time>2026-03-24T12:33:18.978Z</time></trkpt><trkpt lat="45.33023914376739" lon="10.512317870954611"><ele>60.99999999999999</ele><time>2026-03-24T12:33:19.978Z</time></trkpt><trkpt lat="45.33019804771721" lon="10.512434886862263"><ele>60.8</ele><time>2026-03-24T12:33:20.978Z</time></trkpt><trkpt lat="45.330169178636645" lon="10.512568176868403"><ele>60.599999999999994</ele><time>2026-03-24T12:33:21.978Z</time></trkpt><trkpt lat="45.33014868618348" lon="10.512710568222344"><ele>60.4</ele><time>2026-03-24T12:33:22.978Z</time></trkpt><trkpt lat="45.33013701729868" lon="10.512843506115756"><ele>60.2</ele><time>2026-03-24T12:33:23.978Z</time></trkpt><trkpt lat="45.33012476578981" lon="10.512978316013411"><ele>60.0</ele><time>2026-03-24T12:33:24.978Z</time></trkpt><trkpt lat="45.33011308474576" lon="10.513108460822345"><ele>60.2</ele><time>2026-03-24T12:33:25.978Z</time></trkpt><trkpt lat="45.3300999599656" lon="10.513252067955378"><ele>60.4</ele><time>2026-03-24T12:33:26.978Z</time></trkpt><trkpt lat="45.33008681688931" lon="10.51338677159663"><ele>60.599999999999994</ele><time>2026-03-24T12:33:27.978Z</time></trkpt><trkpt lat="45.33007449065259" lon="10.51352134376578"><ele>60.8</ele><time>2026-03-24T12:33:28.978Z</time></trkpt><trkpt lat="45.33008640747686" lon="10.513656472300273"><ele>61.0</ele><time>2026-03-24T12:33:29.978Z</time></trkpt><trkpt lat="45.330117964349135" lon="10.513810053568037"><ele>61.0</ele><time>2026-03-24T12:33:30.978Z</time></trkpt><trkpt lat="45.330157344604906" lon="10.513939299646296"><ele>60.99999999999999</ele><time>2026-03-24T12:33:31.978Z</time></trkpt><trkpt lat="45.33020955687142" lon="10.514064161175341"><ele>60.99999999999999</ele><time>2026-03-24T12:33:32.978Z</time></trkpt><trkpt lat="45.33025849605892" lon="10.514170523324774"><ele>61.0</ele><time>2026-03-24T12:33:33.978Z</time></trkpt><trkpt lat="45.330309985768274" lon="10.514268672084757"><ele>61.0</ele><time>2026-03-24T12:33:34.978Z</time></trkpt><trkpt lat="45.33030241300365" lon="10.514410938682026"><ele>61.0</ele><time>2026-03-24T12:33:36.978Z</time></trkpt><trkpt lat="45.33022567101969" lon="10.514514959733846"><ele>60.99999999999999</ele><time>2026-03-24T12:33:38.978Z</time></trkpt><trkpt lat="45.33018448698429" lon="10.514595785221232"><ele>60.99999999999999</ele><time>2026-03-24T12:33:39.978Z</time></trkpt><trkpt lat="45.33013616793167" lon="10.514690613502507"><ele>61.0</ele><time>2026-03-24T12:33:40.978Z</time></trkpt><trkpt lat="45.330088512047716" lon="10.514830401763023"><ele>61.0</ele><time>2026-03-24T12:33:41.978Z</time></trkpt><trkpt lat="45.329998224601546" lon="10.514957813150026"><ele>61.25</ele><time>2026-03-24T12:33:42.978Z</time></trkpt><trkpt lat="45.32993076244549" lon="10.515101937235483"><ele>61.5</ele><time>2026-03-24T12:33:43.978Z</time></trkpt><trkpt lat="45.329863062249544" lon="10.515235112021866"><ele>61.75</ele><time>2026-03-24T12:33:44.978Z</time></trkpt><trkpt lat="45.329793741156465" lon="10.515368946856066"><ele>62.0</ele><time>2026-03-24T12:33:45.978Z</time></trkpt><trkpt lat="45.329718876636804" lon="10.515505451828822"><ele>62.2</ele><time>2026-03-24T12:33:46.978Z</time></trkpt><trkpt lat="45.32964841829455" lon="10.515630277953564"><ele>62.400000000000006</ele><time>2026-03-24T12:33:47.978Z</time></trkpt><trkpt lat="45.329576718340476" lon="10.515748091712656"><ele>62.599999999999994</ele><time>2026-03-24T12:33:48.978Z</time></trkpt><trkpt lat="45.32951121241879" lon="10.515855432517613"><ele>62.8</ele><time>2026-03-24T12:33:49.978Z</time></trkpt><trkpt lat="45.32945448548115" lon="10.515941829793045"><ele>63.0</ele><time>2026-03-24T12:33:50.978Z</time></trkpt><trkpt lat="45.32941104063992" lon="10.516008546987802"><ele>63.0</ele><time>2026-03-24T12:33:51.978Z</time></trkpt><trkpt lat="45.329361275529955" lon="10.516078935632562"><ele>63.0</ele><time>2026-03-24T12:33:53.978Z</time></trkpt><trkpt lat="45.329467707855564" lon="10.516265174320322"><ele>63.0</ele><time>2026-03-24T12:33:59.978Z</time></trkpt><trkpt lat="45.329531063832746" lon="10.516349812160335"><ele>63.0</ele><time>2026-03-24T12:34:00.978Z</time></trkpt><trkpt lat="45.329594396731395" lon="10.516443174041964"><ele>63.0</ele><time>2026-03-24T12:34:01.978Z</time></trkpt><trkpt lat="45.32966365870507" lon="10.516545371189904"><ele>63.0</ele><time>2026-03-24T12:34:02.978Z</time></trkpt><trkpt lat="45.3297559784537" lon="10.516662954899132"><ele>63.0</ele><time>2026-03-24T12:34:03.978Z</time></trkpt><trkpt lat="45.32987284509235" lon="10.516782141858663"><ele>63.0</ele><time>2026-03-24T12:34:04.978Z</time></trkpt><trkpt lat="45.32998286560198" lon="10.516901223700513"><ele>63.0</ele><time>2026-03-24T12:34:05.978Z</time></trkpt><trkpt lat="45.33009199921517" lon="10.517015968274034"><ele>62.66666666666667</ele><time>2026-03-24T12:34:06.978Z</time></trkpt><trkpt lat="45.330212226722715" lon="10.517137681433445"><ele>62.333333333333336</ele><time>2026-03-24T12:34:07.978Z</time></trkpt><trkpt lat="45.330346131732064" lon="10.51726282414702"><ele>62.0</ele><time>2026-03-24T12:34:08.978Z</time></trkpt><trkpt lat="45.33047963298998" lon="10.517400266119743"><ele>62.0</ele><time>2026-03-24T12:34:09.978Z</time></trkpt><trkpt lat="45.330611564667194" lon="10.517539757650804"><ele>62.0</ele><time>2026-03-24T12:34:10.978Z</time></trkpt><trkpt lat="45.33075387906487" lon="10.517683413013508"><ele>62.0</ele><time>2026-03-24T12:34:11.978Z</time></trkpt><trkpt lat="45.33088966477999" lon="10.517822244290619"><ele>62.333333333333336</ele><time>2026-03-24T12:34:12.978Z</time></trkpt><trkpt lat="45.33102564229178" lon="10.517955392261918"><ele>62.66666666666667</ele><time>2026-03-24T12:34:13.978Z</time></trkpt><trkpt lat="45.33115854755877" lon="10.518092416547638"><ele>63.0</ele><time>2026-03-24T12:34:14.978Z</time></trkpt><trkpt lat="45.331295772511226" lon="10.518226739468975"><ele>63.33333333333333</ele><time>2026-03-24T12:34:15.978Z</time></trkpt><trkpt lat="45.33143724515276" lon="10.518364511184137"><ele>63.666666666666664</ele><time>2026-03-24T12:34:16.978Z</time></trkpt><trkpt lat="45.33158142068166" lon="10.518496786613975"><ele>64.0</ele><time>2026-03-24T12:34:17.978Z</time></trkpt><trkpt lat="45.331728424457836" lon="10.51862903290989"><ele>63.666666666666664</ele><time>2026-03-24T12:34:18.978Z</time></trkpt><trkpt lat="45.33186085301774" lon="10.518770174987706"><ele>63.33333333333333</ele><time>2026-03-24T12:34:19.978Z</time></trkpt><trkpt lat="45.33199652829682" lon="10.518907035362579"><ele>63.0</ele><time>2026-03-24T12:34:20.978Z</time></trkpt><trkpt lat="45.33213016372127" lon="10.519041595310592"><ele>63.33333333333333</ele><time>2026-03-24T12:34:21.978Z</time></trkpt><trkpt lat="45.33225565579211" lon="10.519184673714012"><ele>63.666666666666664</ele><time>2026-03-24T12:34:22.978Z</time></trkpt><trkpt lat="45.33238384461924" lon="10.519320788025505"><ele>64.0</ele><time>2026-03-24T12:34:23.978Z</time></trkpt><trkpt lat="45.33251013894578" lon="10.519452709951622"><ele>64.66666666666666</ele><time>2026-03-24T12:34:24.978Z</time></trkpt><trkpt lat="45.33263932630366" lon="10.519586665919501"><ele>65.33333333333333</ele><time>2026-03-24T12:34:25.978Z</time></trkpt><trkpt lat="45.332768226357494" lon="10.519721985087257"><ele>66.0</ele><time>2026-03-24T12:34:26.979Z</time></trkpt><trkpt lat="45.33289589504988" lon="10.519857647812737"><ele>66.0</ele><time>2026-03-24T12:34:27.979Z</time></trkpt><trkpt lat="45.33302013278968" lon="10.520004965624741"><ele>66.0</ele><time>2026-03-24T12:34:28.978Z</time></trkpt><trkpt lat="45.33315535220511" lon="10.520144443658399"><ele>66.0</ele><time>2026-03-24T12:34:29.978Z</time></trkpt><trkpt lat="45.33329690099733" lon="10.520284972941091"><ele>65.66666666666667</ele><time>2026-03-24T12:34:30.978Z</time></trkpt><trkpt lat="45.33343669213992" lon="10.520434431644663"><ele>65.33333333333334</ele><time>2026-03-24T12:34:31.978Z</time></trkpt><trkpt lat="45.3335816249871" lon="10.52058050809623"><ele>65.0</ele><time>2026-03-24T12:34:32.978Z</time></trkpt><trkpt lat="45.33372858007395" lon="10.520730296677097"><ele>65.0</ele><time>2026-03-24T12:34:33.978Z</time></trkpt><trkpt lat="45.33387469962319" lon="10.52088771842483"><ele>65.0</ele><time>2026-03-24T12:34:34.978Z</time></trkpt><trkpt lat="45.33401366318434" lon="10.521048402177483"><ele>65.0</ele><time>2026-03-24T12:34:35.978Z</time></trkpt><trkpt lat="45.33417478973941" lon="10.521222906294572"><ele>65.33333333333334</ele><time>2026-03-24T12:34:36.978Z</time></trkpt><trkpt lat="45.33434014177498" lon="10.521399463699128"><ele>65.66666666666667</ele><time>2026-03-24T12:34:37.978Z</time></trkpt><trkpt lat="45.33449964093282" lon="10.521582366973341"><ele>66.0</ele><time>2026-03-24T12:34:38.978Z</time></trkpt><trkpt lat="45.334662408223956" lon="10.52176412351813"><ele>66.0</ele><time>2026-03-24T12:34:39.978Z</time></trkpt><trkpt lat="45.334816865058635" lon="10.521954771409833"><ele>66.0</ele><time>2026-03-24T12:34:40.978Z</time></trkpt><trkpt lat="45.33497696404794" lon="10.522147013851507"><ele>66.0</ele><time>2026-03-24T12:34:41.978Z</time></trkpt><trkpt lat="45.335131413285694" lon="10.522357164795485"><ele>66.33333333333333</ele><time>2026-03-24T12:34:42.978Z</time></trkpt><trkpt lat="45.33527744061812" lon="10.522564905378964"><ele>66.66666666666666</ele><time>2026-03-24T12:34:43.978Z</time></trkpt><trkpt lat="45.33542390526325" lon="10.52276722466522"><ele>67.0</ele><time>2026-03-24T12:34:44.978Z</time></trkpt><trkpt lat="45.3355720944351" lon="10.52297411244487"><ele>67.0</ele><time>2026-03-24T12:34:45.978Z</time></trkpt><trkpt lat="45.3357297097907" lon="10.523177861328497"><ele>67.0</ele><time>2026-03-24T12:34:46.978Z</time></trkpt><trkpt lat="45.335892783140196" lon="10.523376997574633"><ele>67.0</ele><time>2026-03-24T12:34:47.978Z</time></trkpt><trkpt lat="45.33604973757801" lon="10.523584536058149"><ele>67.0</ele><time>2026-03-24T12:34:48.978Z</time></trkpt><trkpt lat="45.33621445852063" lon="10.523791649969048"><ele>67.0</ele><time>2026-03-24T12:34:49.978Z</time></trkpt><trkpt lat="45.336383727484595" lon="10.523986637868136"><ele>67.0</ele><time>2026-03-24T12:34:50.978Z</time></trkpt><trkpt lat="45.33655151884477" lon="10.524172609636885"><ele>66.66666666666666</ele><time>2026-03-24T12:34:51.978Z</time></trkpt><trkpt lat="45.336712952170785" lon="10.524357394875262"><ele>66.33333333333333</ele><time>2026-03-24T12:34:52.978Z</time></trkpt><trkpt lat="45.336872574650755" lon="10.524540112247953"><ele>66.0</ele><time>2026-03-24T12:34:53.978Z</time></trkpt><trkpt lat="45.337024962697" lon="10.524715002025342"><ele>66.66666666666667</ele><time>2026-03-24T12:34:54.978Z</time></trkpt><trkpt lat="45.337168977572276" lon="10.524874089697077"><ele>67.33333333333334</ele><time>2026-03-24T12:34:55.978Z</time></trkpt><trkpt lat="45.33731575243147" lon="10.525028829318648"><ele>68.0</ele><time>2026-03-24T12:34:56.978Z</time></trkpt><trkpt lat="45.337470219452854" lon="10.525179296362081"><ele>68.0</ele><time>2026-03-24T12:34:57.978Z</time></trkpt><trkpt lat="45.337631827741326" lon="10.525317569565857"><ele>68.0</ele><time>2026-03-24T12:34:58.978Z</time></trkpt><trkpt lat="45.337799676608874" lon="10.525454847133608"><ele>68.0</ele><time>2026-03-24T12:34:59.978Z</time></trkpt><trkpt lat="45.33797245139453" lon="10.525588268928638"><ele>68.66666666666667</ele><time>2026-03-24T12:35:00.978Z</time></trkpt><trkpt lat="45.338150036103805" lon="10.52573445686164"><ele>69.33333333333333</ele><time>2026-03-24T12:35:01.978Z</time></trkpt><trkpt lat="45.33833268087681" lon="10.525887162374566"><ele>70.0</ele><time>2026-03-24T12:35:02.978Z</time></trkpt><trkpt lat="45.33851947640577" lon="10.526040240032208"><ele>70.0</ele><time>2026-03-24T12:35:03.978Z</time></trkpt><trkpt lat="45.33870993809732" lon="10.526198632905556"><ele>70.0</ele><time>2026-03-24T12:35:04.977Z</time></trkpt><trkpt lat="45.338902048534564" lon="10.526359186968538"><ele>70.0</ele><time>2026-03-24T12:35:05.977Z</time></trkpt><trkpt lat="45.33909603359372" lon="10.526521453555402"><ele>69.5</ele><time>2026-03-24T12:35:06.977Z</time></trkpt><trkpt lat="45.33929241923439" lon="10.526675996778877"><ele>69.0</ele><time>2026-03-24T12:35:07.977Z</time></trkpt><trkpt lat="45.339497927725155" lon="10.52685940516439"><ele>69.0</ele><time>2026-03-24T12:35:08.977Z</time></trkpt><trkpt lat="45.339712265077196" lon="10.527037897867608"><ele>69.0</ele><time>2026-03-24T12:35:09.977Z</time></trkpt><trkpt lat="45.33992703100752" lon="10.527220467942213"><ele>70.5</ele><time>2026-03-24T12:35:10.976Z</time></trkpt><trkpt lat="45.34015178980418" lon="10.527392700575884"><ele>72.0</ele><time>2026-03-24T12:35:11.976Z</time></trkpt><trkpt lat="45.34037796416436" lon="10.527579051757364"><ele>71.5</ele><time>2026-03-24T12:35:12.976Z</time></trkpt><trkpt lat="45.34060492496216" lon="10.52775814067083"><ele>71.0</ele><time>2026-03-24T12:35:13.976Z</time></trkpt><trkpt lat="45.34083336982369" lon="10.527950256442601"><ele>72.0</ele><time>2026-03-24T12:35:14.976Z</time></trkpt><trkpt lat="45.34106385268433" lon="10.528142861536104"><ele>73.0</ele><time>2026-03-24T12:35:15.976Z</time></trkpt><trkpt lat="45.34130523390551" lon="10.528310284561277"><ele>73.5</ele><time>2026-03-24T12:35:16.976Z</time></trkpt><trkpt lat="45.34153241116221" lon="10.528493271976387"><ele>74.0</ele><time>2026-03-24T12:35:17.976Z</time></trkpt><trkpt lat="45.34175689354138" lon="10.528674088735103"><ele>73.5</ele><time>2026-03-24T12:35:18.976Z</time></trkpt><trkpt lat="45.34197920802666" lon="10.528853613214405"><ele>73.0</ele><time>2026-03-24T12:35:19.976Z</time></trkpt><trkpt lat="45.342196180568315" lon="10.529028913998065"><ele>74.0</ele><time>2026-03-24T12:35:20.976Z</time></trkpt><trkpt lat="45.3424096717944" lon="10.529201402089374"><ele>75.0</ele><time>2026-03-24T12:35:21.975Z</time></trkpt><trkpt lat="45.34262042060321" lon="10.529370646211136"><ele>75.0</ele><time>2026-03-24T12:35:22.975Z</time></trkpt><trkpt lat="45.342823522393985" lon="10.529533536963594"><ele>75.0</ele><time>2026-03-24T12:35:23.975Z</time></trkpt><trkpt lat="45.343023674292745" lon="10.529694061818226"><ele>75.33333333333333</ele><time>2026-03-24T12:35:24.975Z</time></trkpt><trkpt lat="45.34321971163266" lon="10.529851286767633"><ele>75.66666666666666</ele><time>2026-03-24T12:35:25.975Z</time></trkpt><trkpt lat="45.34340802279697" lon="10.530002079221372"><ele>76.0</ele><time>2026-03-24T12:35:26.975Z</time></trkpt><trkpt lat="45.34359522996371" lon="10.530151460457452"><ele>76.0</ele><time>2026-03-24T12:35:27.975Z</time></trkpt><trkpt lat="45.34376864409939" lon="10.530314079001423"><ele>76.0</ele><time>2026-03-24T12:35:28.975Z</time></trkpt><trkpt lat="45.3439511834622" lon="10.530455664674893"><ele>76.0</ele><time>2026-03-24T12:35:29.975Z</time></trkpt><trkpt lat="45.34412539488188" lon="10.530603214875455"><ele>76.0</ele><time>2026-03-24T12:35:30.975Z</time></trkpt><trkpt lat="45.34429418659193" lon="10.53076101780666"><ele>76.0</ele><time>2026-03-24T12:35:31.975Z</time></trkpt><trkpt lat="45.34446182176294" lon="10.530922064753506"><ele>76.0</ele><time>2026-03-24T12:35:32.975Z</time></trkpt><trkpt lat="45.34463360813541" lon="10.531093165193756"><ele>76.33333333333333</ele><time>2026-03-24T12:35:33.975Z</time></trkpt><trkpt lat="45.344793546370404" lon="10.531258621952311"><ele>76.66666666666667</ele><time>2026-03-24T12:35:34.975Z</time></trkpt><trkpt lat="45.3449494046929" lon="10.531411335435314"><ele>77.0</ele><time>2026-03-24T12:35:35.975Z</time></trkpt><trkpt lat="45.34510306630098" lon="10.531558667555645"><ele>77.0</ele><time>2026-03-24T12:35:36.975Z</time></trkpt><trkpt lat="45.34524194066948" lon="10.531689526753828"><ele>77.0</ele><time>2026-03-24T12:35:37.975Z</time></trkpt><trkpt lat="45.34536925187594" lon="10.53181530536238"><ele>77.0</ele><time>2026-03-24T12:35:38.975Z</time></trkpt><trkpt lat="45.34547451093274" lon="10.531942982789806"><ele>77.25</ele><time>2026-03-24T12:35:39.975Z</time></trkpt><trkpt lat="45.3455529091653" lon="10.532091997540554"><ele>77.5</ele><time>2026-03-24T12:35:40.975Z</time></trkpt><trkpt lat="45.345619785372804" lon="10.532237842915142"><ele>77.75</ele><time>2026-03-24T12:35:41.975Z</time></trkpt><trkpt lat="45.34567722063929" lon="10.532385859442963"><ele>78.0</ele><time>2026-03-24T12:35:42.975Z</time></trkpt><trkpt lat="45.34573651082047" lon="10.532535717851093"><ele>78.0</ele><time>2026-03-24T12:35:43.975Z</time></trkpt><trkpt lat="45.34581978180601" lon="10.532663245289474"><ele>78.0</ele><time>2026-03-24T12:35:44.975Z</time></trkpt><trkpt lat="45.3459216869625" lon="10.532762590777004"><ele>78.0</ele><time>2026-03-24T12:35:45.975Z</time></trkpt><trkpt lat="45.346049438120275" lon="10.53283909292205"><ele>78.0</ele><time>2026-03-24T12:35:46.974Z</time></trkpt><trkpt lat="45.34617550597267" lon="10.53290024361361"><ele>78.75</ele><time>2026-03-24T12:35:47.974Z</time></trkpt><trkpt lat="45.34630488303447" lon="10.532968125987889"><ele>79.5</ele><time>2026-03-24T12:35:48.974Z</time></trkpt><trkpt lat="45.34642647052581" lon="10.53303802927457"><ele>80.25</ele><time>2026-03-24T12:35:49.974Z</time></trkpt><trkpt lat="45.34654461962526" lon="10.533114293285534"><ele>81.0</ele><time>2026-03-24T12:35:50.974Z</time></trkpt><trkpt lat="45.34666073840047" lon="10.533206648599766"><ele>81.75</ele><time>2026-03-24T12:35:51.974Z</time></trkpt><trkpt lat="45.346775904818664" lon="10.53331231886198"><ele>82.5</ele><time>2026-03-24T12:35:52.974Z</time></trkpt><trkpt lat="45.34688826863753" lon="10.533423525873557"><ele>83.25</ele><time>2026-03-24T12:35:53.974Z</time></trkpt><trkpt lat="45.3469996274213" lon="10.533537615724834"><ele>84.0</ele><time>2026-03-24T12:35:54.974Z</time></trkpt><trkpt lat="45.34711562614994" lon="10.533651788314314"><ele>84.33333333333333</ele><time>2026-03-24T12:35:55.974Z</time></trkpt><trkpt lat="45.34724091966172" lon="10.533772724858489"><ele>84.66666666666666</ele><time>2026-03-24T12:35:56.974Z</time></trkpt><trkpt lat="45.34736855701637" lon="10.533900320502577"><ele>85.0</ele><time>2026-03-24T12:35:57.974Z</time></trkpt><trkpt lat="45.34749972108016" lon="10.534035229703893"><ele>85.0</ele><time>2026-03-24T12:35:58.974Z</time></trkpt><trkpt lat="45.34762950082707" lon="10.534164952357822"><ele>85.0</ele><time>2026-03-24T12:35:59.974Z</time></trkpt><trkpt lat="45.34775394883802" lon="10.53429052106934"><ele>85.0</ele><time>2026-03-24T12:36:00.974Z</time></trkpt><trkpt lat="45.34787992446941" lon="10.534419986219973"><ele>85.0</ele><time>2026-03-24T12:36:01.974Z</time></trkpt><trkpt lat="45.34799865989603" lon="10.53454844064604"><ele>85.0</ele><time>2026-03-24T12:36:02.974Z</time></trkpt><trkpt lat="45.34810421596032" lon="10.534681435197722"><ele>85.0</ele><time>2026-03-24T12:36:03.974Z</time></trkpt><trkpt lat="45.34819027069864" lon="10.534827553356683"><ele>85.0</ele><time>2026-03-24T12:36:04.974Z</time></trkpt><trkpt lat="45.34825686485527" lon="10.53498312924258"><ele>85.6</ele><time>2026-03-24T12:36:05.974Z</time></trkpt><trkpt lat="45.348333682920945" lon="10.535112497988619"><ele>86.2</ele><time>2026-03-24T12:36:06.974Z</time></trkpt><trkpt lat="45.34842454528303" lon="10.5351972631568"><ele>86.80000000000001</ele><time>2026-03-24T12:36:07.974Z</time></trkpt><trkpt lat="45.34850027300555" lon="10.535274063316914"><ele>87.4</ele><time>2026-03-24T12:36:08.974Z</time></trkpt><trkpt lat="45.34857128432457" lon="10.535327642040924"><ele>88.0</ele><time>2026-03-24T12:36:09.974Z</time></trkpt><trkpt lat="45.34863363419338" lon="10.535358401596413"><ele>88.0</ele><time>2026-03-24T12:36:10.974Z</time></trkpt><trkpt lat="45.348714335429655" lon="10.535397386762885"><ele>88.0</ele><time>2026-03-24T12:36:12.974Z</time></trkpt><trkpt lat="45.34872055602725" lon="10.53521521985166"><ele>88.0</ele><time>2026-03-24T12:36:13.974Z</time></trkpt><trkpt lat="45.348694824489684" lon="10.53507112185966"><ele>88.0</ele><time>2026-03-24T12:36:15.974Z</time></trkpt><trkpt lat="45.34862949766083" lon="10.535008319255402"><ele>88.0</ele><time>2026-03-24T12:36:16.974Z</time></trkpt><trkpt lat="45.34855988027044" lon="10.53494564287068"><ele>88.0</ele><time>2026-03-24T12:36:17.974Z</time></trkpt><trkpt lat="45.34849314955502" lon="10.534875872121862"><ele>88.0</ele><time>2026-03-24T12:36:18.974Z</time></trkpt><trkpt lat="45.348418763126276" lon="10.534797335813854"><ele>88.0</ele><time>2026-03-24T12:36:19.974Z</time></trkpt><trkpt lat="45.348335703566875" lon="10.53471735998302"><ele>88.0</ele><time>2026-03-24T12:36:20.974Z</time></trkpt><trkpt lat="45.34824629086315" lon="10.534618891347863"><ele>88.0</ele><time>2026-03-24T12:36:21.974Z</time></trkpt><trkpt lat="45.3481692784821" lon="10.534507339223154"><ele>87.80000000000001</ele><time>2026-03-24T12:36:22.974Z</time></trkpt><trkpt lat="45.348085672980275" lon="10.534413652807958"><ele>87.6</ele><time>2026-03-24T12:36:23.974Z</time></trkpt><trkpt lat="45.34801024034532" lon="10.534328346671973"><ele>87.4</ele><time>2026-03-24T12:36:24.974Z</time></trkpt><trkpt lat="45.347950273572714" lon="10.53424930655814"><ele>87.19999999999999</ele><time>2026-03-24T12:36:25.974Z</time></trkpt><trkpt lat="45.347913691813105" lon="10.534169921805681"><ele>87.0</ele><time>2026-03-24T12:36:26.974Z</time></trkpt><trkpt lat="45.34786334943689" lon="10.5340173429324"><ele>86.66666666666667</ele><time>2026-03-24T12:36:28.974Z</time></trkpt><trkpt lat="45.34792263944039" lon="10.533893744456687"><ele>86.33333333333333</ele><time>2026-03-24T12:36:29.974Z</time></trkpt><trkpt lat="45.34793536244127" lon="10.533789115864066"><ele>86.0</ele><time>2026-03-24T12:36:30.974Z</time></trkpt><trkpt lat="45.34792337507669" lon="10.533684531223502"><ele>85.66666666666666</ele><time>2026-03-24T12:36:31.974Z</time></trkpt><trkpt lat="45.34796134560528" lon="10.533559293591367"><ele>85.33333333333333</ele><time>2026-03-24T12:36:32.974Z</time></trkpt><trkpt lat="45.34796663254348" lon="10.533435314654502"><ele>85.0</ele><time>2026-03-24T12:36:33.974Z</time></trkpt><trkpt lat="45.34797321155292" lon="10.533313309353986"><ele>84.5</ele><time>2026-03-24T12:36:34.974Z</time></trkpt><trkpt lat="45.34800891152271" lon="10.533170829311837"><ele>84.0</ele><time>2026-03-24T12:36:35.974Z</time></trkpt><trkpt lat="45.348076638019634" lon="10.53304140101979"><ele>83.5</ele><time>2026-03-24T12:36:36.974Z</time></trkpt><trkpt lat="45.34816202472221" lon="10.532928971763077"><ele>83.0</ele><time>2026-03-24T12:36:37.974Z</time></trkpt><trkpt lat="45.348270083373606" lon="10.532830358108013"><ele>82.5</ele><time>2026-03-24T12:36:38.974Z</time></trkpt><trkpt lat="45.34837431735757" lon="10.532720141011591"><ele>82.0</ele><time>2026-03-24T12:36:39.974Z</time></trkpt><trkpt lat="45.34847610414658" lon="10.532608077455857"><ele>81.5</ele><time>2026-03-24T12:36:40.974Z</time></trkpt><trkpt lat="45.34858659631157" lon="10.532491363501887"><ele>81.0</ele><time>2026-03-24T12:36:41.974Z</time></trkpt><trkpt lat="45.34870834511249" lon="10.532369082072908"><ele>81.0</ele><time>2026-03-24T12:36:42.973Z</time></trkpt><trkpt lat="45.34883653915285" lon="10.532248345701854"><ele>81.0</ele><time>2026-03-24T12:36:43.973Z</time></trkpt><trkpt lat="45.348968558822534" lon="10.532132415985675"><ele>81.0</ele><time>2026-03-24T12:36:44.973Z</time></trkpt><trkpt lat="45.34910462266982" lon="10.532007103220451"><ele>81.66666666666667</ele><time>2026-03-24T12:36:45.973Z</time></trkpt><trkpt lat="45.34924797629379" lon="10.531870878781012"><ele>82.33333333333334</ele><time>2026-03-24T12:36:46.973Z</time></trkpt><trkpt lat="45.34939319053204" lon="10.53173926647918"><ele>83.0</ele><time>2026-03-24T12:36:47.973Z</time></trkpt><trkpt lat="45.34954316921624" lon="10.531605712730782"><ele>83.0</ele><time>2026-03-24T12:36:48.973Z</time></trkpt><trkpt lat="45.349697261057536" lon="10.531463062959018"><ele>83.0</ele><time>2026-03-24T12:36:49.973Z</time></trkpt><trkpt lat="45.34985197598668" lon="10.531320633170498"><ele>83.0</ele><time>2026-03-24T12:36:50.973Z</time></trkpt><trkpt lat="45.35001296553629" lon="10.531170946732987"><ele>83.0</ele><time>2026-03-24T12:36:51.973Z</time></trkpt><trkpt lat="45.350176905998694" lon="10.531024314805675"><ele>83.0</ele><time>2026-03-24T12:36:52.973Z</time></trkpt><trkpt lat="45.35034136191163" lon="10.530868625010385"><ele>83.0</ele><time>2026-03-24T12:36:53.973Z</time></trkpt><trkpt lat="45.35050952400032" lon="10.530710711498264"><ele>83.33333333333334</ele><time>2026-03-24T12:36:54.973Z</time></trkpt><trkpt lat="45.350680620225766" lon="10.530549983005091"><ele>83.66666666666667</ele><time>2026-03-24T12:36:55.973Z</time></trkpt><trkpt lat="45.35084992995599" lon="10.530388498079748"><ele>84.0</ele><time>2026-03-24T12:36:56.973Z</time></trkpt><trkpt lat="45.35101784264541" lon="10.530231965679498"><ele>84.0</ele><time>2026-03-24T12:36:57.973Z</time></trkpt><trkpt lat="45.35118653984377" lon="10.530072753292515"><ele>84.0</ele><time>2026-03-24T12:36:58.973Z</time></trkpt><trkpt lat="45.35135162565311" lon="10.529923607488646"><ele>84.0</ele><time>2026-03-24T12:36:59.973Z</time></trkpt><trkpt lat="45.351514433648326" lon="10.529769012883957"><ele>84.33333333333333</ele><time>2026-03-24T12:37:00.973Z</time></trkpt><trkpt lat="45.35167706614407" lon="10.529612628376755"><ele>84.66666666666666</ele><time>2026-03-24T12:37:01.973Z</time></trkpt><trkpt lat="45.35183779059163" lon="10.529460910497926"><ele>85.0</ele><time>2026-03-24T12:37:02.973Z</time></trkpt><trkpt lat="45.352001784520844" lon="10.529311639141907"><ele>85.0</ele><time>2026-03-24T12:37:03.973Z</time></trkpt><trkpt lat="45.352170914647154" lon="10.529161937934841"><ele>85.0</ele><time>2026-03-24T12:37:04.973Z</time></trkpt><trkpt lat="45.352338950013234" lon="10.529009735679626"><ele>85.0</ele><time>2026-03-24T12:37:05.973Z</time></trkpt><trkpt lat="45.35250561374429" lon="10.528856500304471"><ele>85.0</ele><time>2026-03-24T12:37:06.973Z</time></trkpt><trkpt lat="45.352671743993" lon="10.5286956639946"><ele>85.0</ele><time>2026-03-24T12:37:07.973Z</time></trkpt><trkpt lat="45.35284758078104" lon="10.528533911919054"><ele>85.0</ele><time>2026-03-24T12:37:08.973Z</time></trkpt><trkpt lat="45.35302712227206" lon="10.528367219776868"><ele>85.0</ele><time>2026-03-24T12:37:09.973Z</time></trkpt><trkpt lat="45.353202249772295" lon="10.528207762210798"><ele>85.0</ele><time>2026-03-24T12:37:10.973Z</time></trkpt><trkpt lat="45.353378413990455" lon="10.528032526879283"><ele>85.0</ele><time>2026-03-24T12:37:11.973Z</time></trkpt><trkpt lat="45.35354980500415" lon="10.527858762659958"><ele>85.0</ele><time>2026-03-24T12:37:12.973Z</time></trkpt><trkpt lat="45.35371503996257" lon="10.527686910544615"><ele>85.0</ele><time>2026-03-24T12:37:13.973Z</time></trkpt><trkpt lat="45.35387901902291" lon="10.527515456112006"><ele>85.0</ele><time>2026-03-24T12:37:14.973Z</time></trkpt><trkpt lat="45.3540393798821" lon="10.5273384738829"><ele>85.0</ele><time>2026-03-24T12:37:15.973Z</time></trkpt><trkpt lat="45.35420302047283" lon="10.527156603749335"><ele>85.0</ele><time>2026-03-24T12:37:16.973Z</time></trkpt><trkpt lat="45.35436823545032" lon="10.52698730222401"><ele>85.0</ele><time>2026-03-24T12:37:17.973Z</time></trkpt><trkpt lat="45.35453904787381" lon="10.526824603717605"><ele>85.0</ele><time>2026-03-24T12:37:18.973Z</time></trkpt><trkpt lat="45.354711440757335" lon="10.526662751926178"><ele>85.0</ele><time>2026-03-24T12:37:19.973Z</time></trkpt><trkpt lat="45.35487612272328" lon="10.526512480658308"><ele>85.0</ele><time>2026-03-24T12:37:20.973Z</time></trkpt><trkpt lat="45.35501805318877" lon="10.526368849700042"><ele>85.0</ele><time>2026-03-24T12:37:21.973Z</time></trkpt><trkpt lat="45.35515260506903" lon="10.526244539579587"><ele>85.0</ele><time>2026-03-24T12:37:22.973Z</time></trkpt><trkpt lat="45.35526916644302" lon="10.526142778775753"><ele>85.0</ele><time>2026-03-24T12:37:23.973Z</time></trkpt><trkpt lat="45.35537612331259" lon="10.526047814528026"><ele>85.0</ele><time>2026-03-24T12:37:24.973Z</time></trkpt><trkpt lat="45.355461854342295" lon="10.525962011040013"><ele>85.4</ele><time>2026-03-24T12:37:25.973Z</time></trkpt><trkpt lat="45.355542470652466" lon="10.525905288693027"><ele>85.8</ele><time>2026-03-24T12:37:26.973Z</time></trkpt><trkpt lat="45.35560564149377" lon="10.525858326432996"><ele>86.19999999999999</ele><time>2026-03-24T12:37:27.973Z</time></trkpt><trkpt lat="45.35573241086556" lon="10.525942212220944"><ele>86.6</ele><time>2026-03-24T12:37:29.973Z</time></trkpt><trkpt lat="45.35579411160467" lon="10.526012340369956"><ele>87.0</ele><time>2026-03-24T12:37:30.973Z</time></trkpt><trkpt lat="45.35585584850602" lon="10.526084394034712"><ele>87.0</ele><time>2026-03-24T12:37:31.973Z</time></trkpt><trkpt lat="45.355922517709715" lon="10.526158240604202"><ele>87.0</ele><time>2026-03-24T12:37:32.973Z</time></trkpt><trkpt lat="45.35599783916626" lon="10.526232055503296"><ele>87.0</ele><time>2026-03-24T12:37:33.973Z</time></trkpt><trkpt lat="45.356075068131524" lon="10.526311690111031"><ele>87.0</ele><time>2026-03-24T12:37:34.973Z</time></trkpt><trkpt lat="45.35615272740235" lon="10.52639662822643"><ele>87.0</ele><time>2026-03-24T12:37:35.973Z</time></trkpt><trkpt lat="45.356237454559434" lon="10.526477910377148"><ele>87.0</ele><time>2026-03-24T12:37:36.973Z</time></trkpt><trkpt lat="45.356327544055596" lon="10.526563176969075"><ele>87.0</ele><time>2026-03-24T12:37:37.973Z</time></trkpt><trkpt lat="45.356421335676124" lon="10.52664992409747"><ele>87.0</ele><time>2026-03-24T12:37:38.973Z</time></trkpt><trkpt lat="45.35652239772864" lon="10.526744898620063"><ele>87.0</ele><time>2026-03-24T12:37:39.973Z</time></trkpt><trkpt lat="45.356623744839276" lon="10.52683547075193"><ele>87.25</ele><time>2026-03-24T12:37:40.973Z</time></trkpt><trkpt lat="45.35672941412722" lon="10.526934955294255"><ele>87.5</ele><time>2026-03-24T12:37:41.973Z</time></trkpt><trkpt lat="45.35684109331414" lon="10.527035784505202"><ele>87.75</ele><time>2026-03-24T12:37:42.973Z</time></trkpt><trkpt lat="45.35695509422975" lon="10.527136639889733"><ele>88.0</ele><time>2026-03-24T12:37:43.973Z</time></trkpt><trkpt lat="45.35707338626168" lon="10.527246400101783"><ele>88.0</ele><time>2026-03-24T12:37:44.973Z</time></trkpt><trkpt lat="45.35719379849403" lon="10.527356861961046"><ele>88.0</ele><time>2026-03-24T12:37:45.973Z</time></trkpt><trkpt lat="45.357314468713916" lon="10.52746904242848"><ele>88.0</ele><time>2026-03-24T12:37:46.973Z</time></trkpt><trkpt lat="45.357438764157685" lon="10.527589293747466"><ele>88.0</ele><time>2026-03-24T12:37:47.973Z</time></trkpt><trkpt lat="45.35756988938657" lon="10.52771144575349"><ele>87.66666666666666</ele><time>2026-03-24T12:37:48.973Z</time></trkpt><trkpt lat="45.35770671071025" lon="10.527841788350209"><ele>87.33333333333333</ele><time>2026-03-24T12:37:49.973Z</time></trkpt><trkpt lat="45.35783672531259" lon="10.527965132289577"><ele>87.0</ele><time>2026-03-24T12:37:50.973Z</time></trkpt><trkpt lat="45.35797092687853" lon="10.528070428124687"><ele>87.33333333333333</ele><time>2026-03-24T12:37:51.973Z</time></trkpt><trkpt lat="45.35809986921398" lon="10.52819068869548"><ele>87.66666666666666</ele><time>2026-03-24T12:37:52.973Z</time></trkpt><trkpt lat="45.35823403113986" lon="10.528310433153266"><ele>88.0</ele><time>2026-03-24T12:37:53.973Z</time></trkpt><trkpt lat="45.358367225279224" lon="10.528430649968609"><ele>88.0</ele><time>2026-03-24T12:37:54.973Z</time></trkpt><trkpt lat="45.35849923037854" lon="10.528553080451282"><ele>88.0</ele><time>2026-03-24T12:37:55.973Z</time></trkpt><trkpt lat="45.35862992589194" lon="10.52866301935877"><ele>88.0</ele><time>2026-03-24T12:37:56.973Z</time></trkpt><trkpt lat="45.35875310354897" lon="10.528771212182376"><ele>88.75</ele><time>2026-03-24T12:37:57.973Z</time></trkpt><trkpt lat="45.35887128436397" lon="10.528872726049418"><ele>89.5</ele><time>2026-03-24T12:37:58.973Z</time></trkpt><trkpt lat="45.35898106774954" lon="10.528973991736919"><ele>90.25</ele><time>2026-03-24T12:37:59.973Z</time></trkpt><trkpt lat="45.35908456963959" lon="10.529078849398706"><ele>91.0</ele><time>2026-03-24T12:38:00.973Z</time></trkpt><trkpt lat="45.359187433574746" lon="10.52919054731839"><ele>91.0</ele><time>2026-03-24T12:38:01.973Z</time></trkpt><trkpt lat="45.359278366300025" lon="10.529293143393367"><ele>91.0</ele><time>2026-03-24T12:38:02.973Z</time></trkpt><trkpt lat="45.35936240127551" lon="10.52939913232519"><ele>91.0</ele><time>2026-03-24T12:38:03.973Z</time></trkpt><trkpt lat="45.359444495692166" lon="10.529488535596787"><ele>91.0</ele><time>2026-03-24T12:38:04.973Z</time></trkpt><trkpt lat="45.35953971370054" lon="10.529540897051028"><ele>91.0</ele><time>2026-03-24T12:38:05.973Z</time></trkpt><trkpt lat="45.35963433624342" lon="10.529552184024116"><ele>91.0</ele><time>2026-03-24T12:38:06.973Z</time></trkpt><trkpt lat="45.359726568747476" lon="10.52952480716216"><ele>91.0</ele><time>2026-03-24T12:38:07.973Z</time></trkpt><trkpt lat="45.359823340939805" lon="10.529477740376985"><ele>91.0</ele><time>2026-03-24T12:38:08.973Z</time></trkpt><trkpt lat="45.35992474833859" lon="10.529427280206551"><ele>91.0</ele><time>2026-03-24T12:38:09.973Z</time></trkpt><trkpt lat="45.360031729001534" lon="10.529421538767812"><ele>91.0</ele><time>2026-03-24T12:38:10.972Z</time></trkpt><trkpt lat="45.360151624933344" lon="10.529438707222095"><ele>91.0</ele><time>2026-03-24T12:38:11.972Z</time></trkpt><trkpt lat="45.36026387571565" lon="10.529471632415293"><ele>91.0</ele><time>2026-03-24T12:38:12.972Z</time></trkpt><trkpt lat="45.36038227262377" lon="10.529470980756056"><ele>91.0</ele><time>2026-03-24T12:38:13.972Z</time></trkpt><trkpt lat="45.36050530966517" lon="10.529459355732163"><ele>91.0</ele><time>2026-03-24T12:38:14.972Z</time></trkpt><trkpt lat="45.36062670240697" lon="10.52945527086104"><ele>91.0</ele><time>2026-03-24T12:38:15.972Z</time></trkpt><trkpt lat="45.360743772886224" lon="10.529463897605254"><ele>91.0</ele><time>2026-03-24T12:38:16.972Z</time></trkpt><trkpt lat="45.36086402415021" lon="10.529465840512078"><ele>91.0</ele><time>2026-03-24T12:38:17.972Z</time></trkpt><trkpt lat="45.36098558211159" lon="10.529467477637521"><ele>91.0</ele><time>2026-03-24T12:38:18.972Z</time></trkpt><trkpt lat="45.36111417530098" lon="10.529476838480308"><ele>91.0</ele><time>2026-03-24T12:38:19.972Z</time></trkpt><trkpt lat="45.361253065243766" lon="10.52948777267185"><ele>91.0</ele><time>2026-03-24T12:38:20.972Z</time></trkpt><trkpt lat="45.3613971456401" lon="10.529486404601336"><ele>91.0</ele><time>2026-03-24T12:38:21.972Z</time></trkpt><trkpt lat="45.36154121576885" lon="10.529494572654812"><ele>91.0</ele><time>2026-03-24T12:38:22.972Z</time></trkpt><trkpt lat="45.36169569378049" lon="10.52950563351212"><ele>91.33333333333333</ele><time>2026-03-24T12:38:23.972Z</time></trkpt><trkpt lat="45.36185201553735" lon="10.529519456511158"><ele>91.66666666666667</ele><time>2026-03-24T12:38:24.972Z</time></trkpt><trkpt lat="45.362012476192476" lon="10.529534259873023"><ele>92.0</ele><time>2026-03-24T12:38:25.972Z</time></trkpt><trkpt lat="45.36233656940562" lon="10.52956239158499"><ele>92.66666666666667</ele><time>2026-03-24T12:38:27.972Z</time></trkpt><trkpt lat="45.362501356417866" lon="10.529568270883889"><ele>93.33333333333333</ele><time>2026-03-24T12:38:28.972Z</time></trkpt><trkpt lat="45.36265591514971" lon="10.52957652225894"><ele>94.0</ele><time>2026-03-24T12:38:29.972Z</time></trkpt><trkpt lat="45.36281858593469" lon="10.529580001494665"><ele>94.0</ele><time>2026-03-24T12:38:30.972Z</time></trkpt><trkpt lat="45.36297602779198" lon="10.529596508988783"><ele>94.0</ele><time>2026-03-24T12:38:31.973Z</time></trkpt><trkpt lat="45.36313877527158" lon="10.52960709392691"><ele>94.0</ele><time>2026-03-24T12:38:32.972Z</time></trkpt><trkpt lat="45.363299817013775" lon="10.529618768080393"><ele>94.0</ele><time>2026-03-24T12:38:33.972Z</time></trkpt><trkpt lat="45.363464735832025" lon="10.52962984846768"><ele>94.0</ele><time>2026-03-24T12:38:34.972Z</time></trkpt><trkpt lat="45.363634074195005" lon="10.529640404244988"><ele>94.0</ele><time>2026-03-24T12:38:35.972Z</time></trkpt><trkpt lat="45.36379779230707" lon="10.529654743082709"><ele>94.66666666666666</ele><time>2026-03-24T12:38:36.972Z</time></trkpt><trkpt lat="45.36397131646664" lon="10.529664292526443"><ele>95.33333333333333</ele><time>2026-03-24T12:38:37.972Z</time></trkpt><trkpt lat="45.36414479454879" lon="10.529669059043043"><ele>96.0</ele><time>2026-03-24T12:38:38.973Z</time></trkpt><trkpt lat="45.364310586336245" lon="10.52968014150106"><ele>96.0</ele><time>2026-03-24T12:38:39.973Z</time></trkpt><trkpt lat="45.36446866001081" lon="10.529684967032061"><ele>96.0</ele><time>2026-03-24T12:38:40.972Z</time></trkpt><trkpt lat="45.36462684151834" lon="10.529692112112057"><ele>96.0</ele><time>2026-03-24T12:38:41.973Z</time></trkpt><trkpt lat="45.364788490975" lon="10.529696969707793"><ele>95.66666666666667</ele><time>2026-03-24T12:38:42.973Z</time></trkpt><trkpt lat="45.36495235414556" lon="10.529709312574264"><ele>95.33333333333334</ele><time>2026-03-24T12:38:43.973Z</time></trkpt><trkpt lat="45.36510992438374" lon="10.529723689875151"><ele>95.0</ele><time>2026-03-24T12:38:44.972Z</time></trkpt><trkpt lat="45.36525989589721" lon="10.529733550387872"><ele>95.0</ele><time>2026-03-24T12:38:45.972Z</time></trkpt><trkpt lat="45.36540577931902" lon="10.529737608162616"><ele>95.0</ele><time>2026-03-24T12:38:46.972Z</time></trkpt><trkpt lat="45.365547345321346" lon="10.529744199227693"><ele>95.0</ele><time>2026-03-24T12:38:47.972Z</time></trkpt><trkpt lat="45.36568780580178" lon="10.529745736780274"><ele>95.0</ele><time>2026-03-24T12:38:48.972Z</time></trkpt><trkpt lat="45.36582982162594" lon="10.52975232474387"><ele>95.75</ele><time>2026-03-24T12:38:49.972Z</time></trkpt><trkpt lat="45.36597399188935" lon="10.529759461007334"><ele>96.5</ele><time>2026-03-24T12:38:50.972Z</time></trkpt><trkpt lat="45.366117537412" lon="10.529764035003089"><ele>97.25</ele><time>2026-03-24T12:38:51.972Z</time></trkpt><trkpt lat="45.36625716653191" lon="10.52977500919971"><ele>98.0</ele><time>2026-03-24T12:38:52.972Z</time></trkpt><trkpt lat="45.366397098408825" lon="10.529789948459195"><ele>98.0</ele><time>2026-03-24T12:38:53.972Z</time></trkpt><trkpt lat="45.366538162247096" lon="10.529800665516381"><ele>98.0</ele><time>2026-03-24T12:38:54.972Z</time></trkpt><trkpt lat="45.36668355926493" lon="10.529812785186495"><ele>98.0</ele><time>2026-03-24T12:38:55.972Z</time></trkpt><trkpt lat="45.36682219350457" lon="10.529818205104956"><ele>98.0</ele><time>2026-03-24T12:38:56.972Z</time></trkpt><trkpt lat="45.36696384802399" lon="10.529823019436835"><ele>98.0</ele><time>2026-03-24T12:38:57.972Z</time></trkpt><trkpt lat="45.367104282298456" lon="10.529823380765283"><ele>98.0</ele><time>2026-03-24T12:38:58.972Z</time></trkpt><trkpt lat="45.36724698131837" lon="10.529823158534931"><ele>98.0</ele><time>2026-03-24T12:38:59.972Z</time></trkpt><trkpt lat="45.36738784238495" lon="10.529830308793398"><ele>98.0</ele><time>2026-03-24T12:39:00.972Z</time></trkpt><trkpt lat="45.3675292020133" lon="10.529835991951787"><ele>98.5</ele><time>2026-03-24T12:39:01.972Z</time></trkpt><trkpt lat="45.36766696809955" lon="10.529842618229246"><ele>99.0</ele><time>2026-03-24T12:39:02.972Z</time></trkpt><trkpt lat="45.367802985811956" lon="10.52984511283977"><ele>99.5</ele><time>2026-03-24T12:39:03.972Z</time></trkpt><trkpt lat="45.36793779677157" lon="10.52985055544804"><ele>100.0</ele><time>2026-03-24T12:39:04.972Z</time></trkpt><trkpt lat="45.36806578092118" lon="10.529862007449035"><ele>100.5</ele><time>2026-03-24T12:39:05.972Z</time></trkpt><trkpt lat="45.36819831998133" lon="10.52986674388849"><ele>101.0</ele><time>2026-03-24T12:39:06.972Z</time></trkpt><trkpt lat="45.368335474261606" lon="10.529874331456565"><ele>101.5</ele><time>2026-03-24T12:39:07.972Z</time></trkpt><trkpt lat="45.368475914129824" lon="10.529883082446426"><ele>102.0</ele><time>2026-03-24T12:39:08.972Z</time></trkpt><trkpt lat="45.36862140805583" lon="10.529886415630616"><ele>102.0</ele><time>2026-03-24T12:39:09.972Z</time></trkpt><trkpt lat="45.36877263461278" lon="10.529892137768636"><ele>102.0</ele><time>2026-03-24T12:39:10.972Z</time></trkpt><trkpt lat="45.36892755203696" lon="10.5298973676954"><ele>102.0</ele><time>2026-03-24T12:39:11.972Z</time></trkpt><trkpt lat="45.369088105630865" lon="10.529898262307906"><ele>102.33333333333334</ele><time>2026-03-24T12:39:12.972Z</time></trkpt><trkpt lat="45.36925607142251" lon="10.529893105725398"><ele>102.66666666666667</ele><time>2026-03-24T12:39:13.972Z</time></trkpt><trkpt lat="45.36942565500416" lon="10.529892406064192"><ele>103.0</ele><time>2026-03-24T12:39:14.972Z</time></trkpt><trkpt lat="45.369594056076394" lon="10.529894638214921"><ele>104.0</ele><time>2026-03-24T12:39:15.972Z</time></trkpt><trkpt lat="45.369757605603596" lon="10.529905411352233"><ele>105.0</ele><time>2026-03-24T12:39:16.972Z</time></trkpt><trkpt lat="45.369921508924904" lon="10.529918195430561"><ele>106.0</ele><time>2026-03-24T12:39:17.972Z</time></trkpt><trkpt lat="45.37007394692202" lon="10.529932720847022"><ele>106.0</ele><time>2026-03-24T12:39:18.972Z</time></trkpt><trkpt lat="45.37021538230751" lon="10.529944426353682"><ele>106.0</ele><time>2026-03-24T12:39:19.972Z</time></trkpt><trkpt lat="45.37034292796835" lon="10.529950186037667"><ele>106.0</ele><time>2026-03-24T12:39:20.971Z</time></trkpt><trkpt lat="45.3704588892775" lon="10.529952465904474"><ele>106.0</ele><time>2026-03-24T12:39:21.971Z</time></trkpt><trkpt lat="45.37057426074757" lon="10.529953730905278"><ele>106.4</ele><time>2026-03-24T12:39:22.971Z</time></trkpt><trkpt lat="45.370685467279024" lon="10.52995603302168"><ele>106.8</ele><time>2026-03-24T12:39:23.971Z</time></trkpt><trkpt lat="45.37079078278209" lon="10.529964819011104"><ele>107.20000000000002</ele><time>2026-03-24T12:39:24.971Z</time></trkpt><trkpt lat="45.37088867843992" lon="10.529972543198006"><ele>107.60000000000001</ele><time>2026-03-24T12:39:25.971Z</time></trkpt><trkpt lat="45.37097574901448" lon="10.529976309411712"><ele>108.0</ele><time>2026-03-24T12:39:26.971Z</time></trkpt><trkpt lat="45.37105044458974" lon="10.529978080420221"><ele>108.0</ele><time>2026-03-24T12:39:27.971Z</time></trkpt><trkpt lat="45.371133508186055" lon="10.52998976429079"><ele>108.0</ele><time>2026-03-24T12:39:29.971Z</time></trkpt></trkseg></trk></gpx>